Time;durP1;ratioP1;P1;durP2;ratioP2;P2;SDS_P1;SDS_P2;PMS_P1;PMS_P2;Temp;Humidity;BMP_temperature;BMP_pressure;BME280_temperature;BME280_humidity;BME280_pressure;Samples;Min_cycle;Max_cycle;Signal;HPM_P1;HPM_P2
2021/01/23 00:02:17;;;;;;;4.05;2.08;;;;;;;4.43;75.80;95440.88;4910598;29;20067;-81
2021/01/23 00:04:43;;;;;;;6.63;2.80;;;;;;;4.40;75.13;95450.91;4889918;29;20047;-81
2021/01/23 00:07:09;;;;;;;5.15;2.63;;;;;;;4.44;75.57;95460.47;4918156;29;20047;-81
2021/01/23 00:09:35;;;;;;;4.43;2.85;;;;;;;4.37;76.79;95459.13;4916048;29;20450;-81
2021/01/23 00:12:02;;;;;;;4.25;3.00;;;;;;;4.38;76.29;95452.97;4926776;29;20484;-81
2021/01/23 00:14:28;;;;;;;4.90;3.00;;;;;;;4.41;76.63;95460.19;4924415;29;20119;-81
2021/01/23 00:16:54;;;;;;;5.65;2.95;;;;;;;3.77;78.87;95453.22;4894545;29;20313;-81
2021/01/23 00:19:20;;;;;;;4.63;2.40;;;;;;;3.64;79.41;95447.44;4925836;29;20119;-81
2021/01/23 00:21:46;;;;;;;4.97;3.97;;;;;;;3.55;80.02;95452.25;4910724;29;20032;-81
2021/01/23 00:24:12;;;;;;;4.80;3.03;;;;;;;3.48;80.24;95459.38;4903581;29;20032;-82
2021/01/23 00:26:44;;;;;;;4.82;3.15;;;;;;;3.37;80.76;95455.13;4912042;29;20024;-81
2021/01/23 00:29:13;;;;;;;6.53;2.88;;;;;;;3.38;80.60;95459.28;4907714;29;20203;-82
2021/01/23 00:31:39;;;;;;;6.95;3.63;;;;;;;3.53;79.85;95463.78;4897000;29;20032;-82
2021/01/23 00:34:05;;;;;;;6.00;3.03;;;;;;;3.61;78.88;95465.94;4908293;29;20037;-81
2021/01/23 00:36:32;;;;;;;6.50;3.38;;;;;;;3.65;78.52;95469.59;4921133;29;20040;-81
2021/01/23 00:39:00;;;;;;;6.47;3.50;;;;;;;3.64;78.82;95470.59;4910225;29;20131;-81
2021/01/23 00:41:28;;;;;;;4.78;3.33;;;;;;;3.74;78.41;95477.66;4905829;29;20131;-81
2021/01/23 00:43:54;;;;;;;7.55;3.60;;;;;;;3.74;78.08;95469.94;4910602;29;20074;-81
2021/01/23 00:46:21;;;;;;;6.15;4.18;;;;;;;3.77;78.38;95478.97;4909805;29;20032;-81
2021/01/23 00:48:47;;;;;;;7.53;3.90;;;;;;;3.72;78.57;95479.72;4913836;29;20538;-80
2021/01/23 00:51:13;;;;;;;7.47;4.30;;;;;;;3.71;78.46;95470.41;4924899;29;20028;-81
2021/01/23 00:53:39;;;;;;;7.65;4.13;;;;;;;3.73;78.99;95465.81;4922553;29;20459;-81
2021/01/23 00:56:07;;;;;;;6.18;4.13;;;;;;;3.76;78.23;95467.91;4900808;29;20653;-81
2021/01/23 00:58:32;;;;;;;8.50;4.60;;;;;;;3.72;78.18;95466.84;4893627;29;20040;-80
2021/01/23 01:00:58;;;;;;;8.93;4.50;;;;;;;3.74;78.49;95467.38;4909361;29;20535;-81
2021/01/23 01:03:26;;;;;;;8.75;4.07;;;;;;;3.72;78.91;95472.00;4911445;29;20539;-81
2021/01/23 01:05:51;;;;;;;7.63;4.50;;;;;;;3.67;79.66;95479.66;4912147;29;20032;-81
2021/01/23 01:08:16;;;;;;;9.23;5.25;;;;;;;3.63;79.39;95479.34;4893879;29;20080;-81
2021/01/23 01:10:45;;;;;;;10.57;5.60;;;;;;;3.56;79.75;95484.69;4909662;29;20040;-81
2021/01/23 01:13:14;;;;;;;8.48;5.20;;;;;;;3.55;79.83;95487.50;4897692;29;20039;-81
2021/01/23 01:15:41;;;;;;;10.57;5.13;;;;;;;3.61;80.04;95485.75;4914819;29;20028;-81
2021/01/23 01:18:10;;;;;;;8.80;4.47;;;;;;;3.59;79.51;95482.66;4875616;29;20031;-81
2021/01/23 01:20:36;;;;;;;7.57;4.78;;;;;;;3.52;80.00;95475.13;4928110;29;20114;-81
2021/01/23 01:23:02;;;;;;;8.25;4.68;;;;;;;3.49;80.27;95480.75;4926626;29;20431;-81
2021/01/23 01:25:28;;;;;;;8.38;5.28;;;;;;;3.51;80.29;95489.78;4929879;29;20044;-81
2021/01/23 01:27:54;;;;;;;10.07;5.35;;;;;;;3.44;80.54;95496.88;4913526;29;20039;-81
2021/01/23 01:30:23;;;;;;;7.95;4.88;;;;;;;3.36;80.88;95489.63;4924346;29;20411;-81
2021/01/23 01:32:49;;;;;;;10.43;5.45;;;;;;;3.36;81.25;95495.53;4914273;29;20051;-81
2021/01/23 01:35:16;;;;;;;9.15;5.32;;;;;;;3.36;81.01;95499.91;4907029;29;20040;-80
2021/01/23 01:37:42;;;;;;;8.57;5.18;;;;;;;3.39;81.01;95496.84;4907004;29;20040;-81
2021/01/23 01:40:09;;;;;;;10.02;5.72;;;;;;;3.38;81.54;95496.06;4930344;29;20023;-81
2021/01/23 01:42:35;;;;;;;9.63;5.45;;;;;;;3.42;80.99;95505.88;4930769;29;20043;-81
2021/01/23 01:45:03;;;;;;;10.48;5.40;;;;;;;3.43;80.69;95510.78;4929789;29;20383;-81
2021/01/23 01:47:28;;;;;;;10.90;5.60;;;;;;;3.47;80.50;95506.72;4897483;29;20032;-81
2021/01/23 01:49:57;;;;;;;10.82;5.68;;;;;;;3.46;80.49;95515.47;4909880;29;20043;-81
2021/01/23 01:52:24;;;;;;;10.05;5.57;;;;;;;3.61;80.18;95521.78;4925188;29;21244;-81
2021/01/23 01:54:52;;;;;;;11.40;6.15;;;;;;;3.61;80.09;95506.34;4929653;29;20070;-81
2021/01/23 01:57:23;;;;;;;10.00;5.47;;;;;;;3.56;79.44;95520.72;4929820;29;20055;-81
2021/01/23 01:59:49;;;;;;;8.00;5.15;;;;;;;3.61;79.83;95517.41;4915766;29;20075;-81
2021/01/23 02:02:30;;;;;;;9.57;5.93;;;;;;;3.54;79.98;95530.47;4901625;29;20086;-81
2021/01/23 02:05:02;;;;;;;10.38;5.75;;;;;;;3.41;80.01;95525.69;4927639;29;20066;-81
2021/01/23 02:08:21;;;;;;;11.05;6.22;;;;;;;3.38;80.84;95542.38;4928495;29;20054;-81
2021/01/23 02:11:17;;;;;;;9.27;5.63;;;;;;;3.46;80.04;95530.91;4907915;29;20055;-81
2021/01/23 02:14:34;;;;;;;12.15;6.10;;;;;;;3.29;80.61;95528.38;4940048;29;20032;-81
2021/01/23 02:17:03;;;;;;;13.90;7.25;;;;;;;3.49;79.41;95530.41;4901284;29;20050;-81
2021/01/23 02:19:38;;;;;;;14.45;7.72;;;;;;;3.50;79.71;95531.97;4909495;29;20036;-81
2021/01/23 02:22:42;;;;;;;12.80;7.72;;;;;;;3.31;80.19;95528.13;4913102;29;20044;-81
2021/01/23 02:25:08;;;;;;;17.45;8.77;;;;;;;3.46;80.12;95527.53;4868267;29;20036;-81
2021/01/23 02:27:41;;;;;;;16.17;8.00;;;;;;;3.55;79.63;95534.59;4889896;29;20098;-81
2021/01/23 02:30:13;;;;;;;12.15;7.70;;;;;;;3.55;79.85;95533.81;4896636;29;20044;-81
2021/01/23 02:32:38;;;;;;;12.20;7.40;;;;;;;3.50;79.26;95544.81;4897364;29;20031;-81
2021/01/23 02:35:08;;;;;;;13.85;7.53;;;;;;;3.44;79.34;95540.63;4930602;29;20584;-81
2021/01/23 02:37:34;;;;;;;16.02;7.80;;;;;;;3.47;79.90;95552.25;4914397;29;20456;-81
2021/01/23 02:40:00;;;;;;;13.20;7.65;;;;;;;3.43;79.58;95546.00;4915505;29;20058;-81
2021/01/23 02:42:26;;;;;;;13.93;6.95;;;;;;;3.33;80.01;95546.69;4931742;29;20028;-81
2021/01/23 02:44:52;;;;;;;13.10;7.53;;;;;;;3.36;79.99;95546.22;4898948;29;20126;-81
2021/01/23 02:47:18;;;;;;;12.30;7.68;;;;;;;3.36;80.06;95552.13;4916133;29;20144;-80
2021/01/23 02:49:44;;;;;;;13.40;7.47;;;;;;;3.39;79.33;95538.00;4951456;29;20109;-81
2021/01/23 02:52:27;;;;;;;13.60;7.70;;;;;;;3.14;80.04;95543.59;4926717;29;20059;-81
2021/01/23 02:55:03;;;;;;;13.90;7.95;;;;;;;3.32;80.77;95550.25;4914783;29;20193;-81
2021/01/23 02:57:29;;;;;;;13.88;7.45;;;;;;;3.38;80.21;95554.47;4915085;29;20123;-81
2021/01/23 03:00:03;;;;;;;13.13;7.97;;;;;;;3.31;79.92;95546.16;4914981;29;20039;-81
2021/01/23 03:02:30;;;;;;;16.10;8.40;;;;;;;3.46;80.37;95558.41;4915855;29;20392;-81
2021/01/23 03:05:00;;;;;;;14.88;7.93;;;;;;;3.37;79.90;95547.75;4895757;29;20067;-81
2021/01/23 03:07:26;;;;;;;13.00;6.78;;;;;;;3.38;79.97;95549.31;4912431;29;20036;-81
2021/01/23 03:09:52;;;;;;;14.77;8.15;;;;;;;3.37;79.83;95545.19;4912547;29;20444;-81
2021/01/23 03:12:18;;;;;;;13.10;6.97;;;;;;;3.38;80.35;95546.75;4897160;29;20119;-81
2021/01/23 03:14:44;;;;;;;14.05;7.30;;;;;;;3.32;80.29;95545.09;4913212;29;20063;-81
2021/01/23 03:17:10;;;;;;;12.95;7.57;;;;;;;3.37;79.79;95550.31;4917096;29;20036;-81
2021/01/23 03:19:36;;;;;;;12.93;6.93;;;;;;;3.32;80.21;95552.81;4912211;29;20044;-81
2021/01/23 03:22:02;;;;;;;14.10;7.05;;;;;;;3.29;79.91;95553.28;4912433;29;20039;-81
2021/01/23 03:24:28;;;;;;;14.95;6.88;;;;;;;3.22;80.20;95555.25;4911241;29;20044;-81
2021/01/23 03:26:53;;;;;;;13.30;7.25;;;;;;;3.27;80.00;95557.91;4913202;29;20468;-81
2021/01/23 03:29:19;;;;;;;13.05;6.35;;;;;;;3.30;80.60;95557.44;4927896;29;20039;-81
2021/01/23 03:31:47;;;;;;;12.60;6.60;;;;;;;3.42;79.81;95565.81;4927966;29;20036;-81
2021/01/23 03:34:14;;;;;;;11.88;6.35;;;;;;;3.45;79.98;95567.16;4927211;29;20032;-81
2021/01/23 03:36:40;;;;;;;12.65;6.95;;;;;;;3.40;80.91;95564.50;4917080;29;20028;-81
2021/01/23 03:39:07;;;;;;;10.85;6.32;;;;;;;3.40;80.42;95557.56;4909361;29;20446;-81
2021/01/23 03:41:33;;;;;;;10.05;6.53;;;;;;;3.45;80.55;95570.50;4896139;29;20039;-81
2021/01/23 03:44:00;;;;;;;12.00;6.60;;;;;;;3.43;80.46;95575.09;4927003;29;20095;-81
2021/01/23 03:46:26;;;;;;;11.80;6.63;;;;;;;3.47;80.38;95568.47;4911921;29;20088;-81
2021/01/23 03:48:51;;;;;;;11.38;5.88;;;;;;;3.56;79.76;95571.38;4911752;29;20028;-81
2021/01/23 03:51:17;;;;;;;13.23;6.65;;;;;;;3.62;80.24;95574.81;4911669;29;20052;-81
2021/01/23 03:53:43;;;;;;;12.10;6.90;;;;;;;3.55;80.14;95573.19;4910993;29;20421;-81
2021/01/23 03:56:09;;;;;;;12.05;6.20;;;;;;;3.69;78.97;95568.47;4896048;29;20088;-81
2021/01/23 03:58:35;;;;;;;14.15;6.97;;;;;;;3.45;80.05;95567.91;4913135;29;20040;-81
2021/01/23 04:01:04;;;;;;;13.57;6.57;;;;;;;3.66;79.33;95565.59;4926974;29;20047;-81
2021/01/23 04:03:30;;;;;;;13.20;6.72;;;;;;;3.69;79.71;95559.97;4927948;29;20032;-81
2021/01/23 04:05:55;;;;;;;12.82;6.32;;;;;;;3.69;79.53;95557.41;4930412;29;20075;-81
2021/01/23 04:08:21;;;;;;;12.40;7.00;;;;;;;3.65;79.50;95551.97;4931704;29;20040;-81
2021/01/23 04:10:47;;;;;;;11.02;6.65;;;;;;;3.63;79.70;95556.53;4930402;29;20087;-81
2021/01/23 04:13:13;;;;;;;12.90;7.30;;;;;;;3.60;80.01;95553.69;4914424;29;20043;-81
2021/01/23 04:15:39;;;;;;;12.35;6.70;;;;;;;3.67;79.87;95556.88;4898462;29;20514;-81
2021/01/23 04:18:05;;;;;;;11.98;6.22;;;;;;;3.64;80.07;95549.63;4914938;29;20118;-81
2021/01/23 04:20:31;;;;;;;10.50;5.65;;;;;;;3.67;79.28;95549.16;4930316;29;20027;-81
2021/01/23 04:22:57;;;;;;;11.52;6.63;;;;;;;3.64;79.36;95539.31;4931517;29;20035;-81
2021/01/23 04:25:23;;;;;;;10.98;6.28;;;;;;;3.66;79.54;95545.00;4921013;29;20024;-81
2021/01/23 04:27:49;;;;;;;11.32;6.05;;;;;;;3.68;79.69;95548.88;4914495;29;20114;-81
2021/01/23 04:30:15;;;;;;;13.80;6.78;;;;;;;3.64;79.53;95542.66;4913233;29;20055;-81
2021/01/23 04:32:41;;;;;;;16.08;6.38;;;;;;;3.73;79.07;95540.44;4892917;29;20047;-81
2021/01/23 04:35:09;;;;;;;13.50;6.40;;;;;;;3.61;79.04;95538.00;4924857;29;20523;-81
2021/01/23 04:37:37;;;;;;;10.73;6.47;;;;;;;3.60;78.92;95546.75;4934875;29;20053;-80
2021/01/23 04:40:05;;;;;;;11.02;5.68;;;;;;;3.62;79.50;95546.50;4929985;29;20038;-81
2021/01/23 04:42:31;;;;;;;12.40;6.90;;;;;;;3.48;79.62;95546.88;4910787;29;20065;-81
2021/01/23 04:44:56;;;;;;;11.90;6.60;;;;;;;3.50;80.20;95544.81;4929524;29;20106;-81
2021/01/23 04:47:22;;;;;;;11.20;6.05;;;;;;;3.47;79.94;95536.81;4914029;29;20050;-81
2021/01/23 04:49:48;;;;;;;11.35;5.97;;;;;;;3.38;79.55;95539.03;4931129;29;20047;-80
2021/01/23 04:52:14;;;;;;;14.95;6.15;;;;;;;3.28;80.45;95534.53;4929588;29;20024;-80
2021/01/23 04:54:43;;;;;;;11.15;5.97;;;;;;;3.31;79.76;95533.28;4930803;29;20091;-81
2021/01/23 04:57:08;;;;;;;10.50;6.28;;;;;;;3.30;80.08;95537.63;4914142;29;20031;-81
2021/01/23 04:59:34;;;;;;;10.00;6.10;;;;;;;3.43;79.40;95541.66;4916875;29;20043;-81
2021/01/23 05:02:19;;;;;;;11.90;6.38;;;;;;;3.34;79.47;95543.88;4932615;29;20032;-81
2021/01/23 05:04:48;;;;;;;11.85;6.57;;;;;;;3.36;80.10;95535.91;4932832;29;20063;-81
2021/01/23 05:07:35;;;;;;;11.10;6.97;;;;;;;3.20;80.47;95529.78;4933622;29;20553;-81
2021/01/23 05:10:12;;;;;;;13.45;7.15;;;;;;;3.04;80.31;95526.25;4901283;29;20078;-81
2021/01/23 05:12:41;;;;;;;13.77;7.15;;;;;;;3.17;80.14;95531.06;4933573;29;20035;-80
2021/01/23 05:15:15;;;;;;;12.60;6.70;;;;;;;3.15;80.45;95530.50;4933072;29;20035;-81
2021/01/23 05:17:59;;;;;;;12.70;7.03;;;;;;;3.01;80.89;95526.72;4934775;29;20542;-80
2021/01/23 05:20:32;;;;;;;15.15;7.00;;;;;;;3.17;80.93;95533.63;4933320;29;20042;-81
2021/01/23 05:23:03;;;;;;;10.65;5.75;;;;;;;3.36;79.91;95528.19;4917277;29;20066;-81
2021/01/23 05:25:31;;;;;;;11.88;6.20;;;;;;;3.43;79.90;95526.22;4927440;29;20063;-81
2021/01/23 05:27:58;;;;;;;11.13;6.10;;;;;;;3.24;80.29;95527.50;4917344;29;20047;-81
2021/01/23 05:30:24;;;;;;;12.98;6.53;;;;;;;3.30;80.27;95532.47;4910262;29;20035;-81
2021/01/23 05:33:23;;;;;;;13.00;6.57;;;;;;;3.10;80.56;95527.88;4933045;29;20036;-80
2021/01/23 05:36:06;;;;;;;11.82;6.15;;;;;;;3.16;80.81;95524.34;4910007;29;20048;-81
2021/01/23 05:38:36;;;;;;;13.60;6.47;;;;;;;3.19;80.35;95529.00;4932085;29;20088;-81
2021/01/23 05:41:08;;;;;;;12.60;6.60;;;;;;;3.24;80.74;95530.09;4933058;29;20494;-81
2021/01/23 05:43:37;;;;;;;15.63;7.18;;;;;;;3.15;80.82;95520.22;4916758;29;20062;-81
2021/01/23 05:46:05;;;;;;;14.95;7.05;;;;;;;3.26;80.88;95515.97;4917003;29;20038;-81
2021/01/23 05:48:32;;;;;;;13.50;6.85;;;;;;;3.21;81.26;95510.78;4916822;29;20107;-80
2021/01/23 05:50:58;;;;;;;16.13;7.88;;;;;;;3.30;81.21;95516.28;4932287;29;20036;-81
2021/01/23 05:53:24;;;;;;;19.08;8.27;;;;;;;3.28;81.03;95518.31;4916823;29;20054;-81
2021/01/23 05:55:51;;;;;;;15.25;7.95;;;;;;;3.33;80.74;95505.53;4930657;29;20431;-81
2021/01/23 05:58:17;;;;;;;14.75;7.35;;;;;;;3.35;81.19;95518.91;4932145;29;20036;-81
2021/01/23 06:00:43;;;;;;;14.93;7.25;;;;;;;3.46;80.59;95520.59;4913095;29;20514;-81
2021/01/23 06:03:11;;;;;;;15.70;8.70;;;;;;;3.28;80.86;95526.03;4931016;29;20055;-80
2021/01/23 06:05:36;;;;;;;14.30;7.78;;;;;;;3.45;80.28;95521.59;4914503;29;20047;-80
2021/01/23 06:08:02;;;;;;;16.45;8.52;;;;;;;3.47;80.73;95532.44;4915298;29;20044;-81
2021/01/23 06:10:39;;;;;;;18.85;9.45;;;;;;;3.17;81.14;95520.75;4919159;29;20036;-81
2021/01/23 06:13:06;;;;;;;18.60;9.20;;;;;;;3.45;80.66;95529.34;4931165;29;20268;-81
2021/01/23 06:15:31;;;;;;;17.30;8.05;;;;;;;3.45;80.98;95524.19;4931031;29;20119;-81
2021/01/23 06:18:00;;;;;;;18.88;9.32;;;;;;;3.28;81.45;95520.91;4915621;29;20150;-80
2021/01/23 06:20:42;;;;;;;15.98;8.05;;;;;;;3.23;81.25;95518.25;4931227;29;20467;-81
2021/01/23 06:23:08;;;;;;;19.48;9.75;;;;;;;3.53;80.39;95520.41;4914954;29;20028;-81
2021/01/23 06:25:50;;;;;;;18.63;9.43;;;;;;;3.42;80.91;95524.66;4915462;29;20024;-80
2021/01/23 06:28:25;;;;;;;15.15;8.77;;;;;;;3.50;81.05;95523.47;4930259;29;20505;-81
2021/01/23 06:30:51;;;;;;;;;;;;;;;3.28;81.73;95531.19;4899817;29;20035;-81
2021/01/23 06:33:22;;;;;;;18.48;8.60;;;;;;;3.39;80.93;95527.69;4931930;29;20413;-81
2021/01/23 06:36:06;;;;;;;17.13;7.95;;;;;;;3.28;81.69;95520.91;4902612;29;20043;-81
2021/01/23 06:38:33;;;;;;;18.02;8.07;;;;;;;3.50;81.00;95521.66;4933499;29;20118;-81
2021/01/23 06:41:24;;;;;;;18.45;8.68;;;;;;;3.30;81.58;95511.91;4912476;29;20032;-81
2021/01/23 06:44:12;;;;;;;15.80;7.82;;;;;;;3.30;81.43;95527.34;4913332;29;20038;-81
2021/01/23 06:46:44;;;;;;;17.88;8.70;;;;;;;3.55;80.78;95521.72;4929746;29;20070;-81
2021/01/23 06:49:11;;;;;;;15.65;8.00;;;;;;;3.65;80.32;95515.13;4931126;29;20431;-80
2021/01/23 06:51:39;;;;;;;13.93;7.60;;;;;;;3.65;80.73;95508.22;4931762;29;20082;-81
2021/01/23 06:54:18;;;;;;;14.20;7.22;;;;;;;3.58;80.43;95497.28;4915248;29;20099;-81
2021/01/23 06:56:52;;;;;;;14.85;7.65;;;;;;;3.60;80.66;95497.84;4913685;29;20440;-80
2021/01/23 06:59:23;;;;;;;12.05;7.00;;;;;;;3.76;79.52;95501.34;4930207;29;20066;-81
2021/01/23 07:02:00;;;;;;;12.68;7.32;;;;;;;3.62;80.86;95498.38;4915689;29;20483;-80
2021/01/23 07:04:28;;;;;;;13.07;7.22;;;;;;;3.77;80.37;95500.34;4910171;29;20059;-81
2021/01/23 07:06:55;;;;;;;13.48;7.20;;;;;;;3.80;80.32;95494.69;4912154;29;20644;-81
2021/01/23 07:09:50;;;;;;;11.60;6.85;;;;;;;3.59;80.65;95498.88;4928240;29;20468;-80
2021/01/23 07:12:35;;;;;;;14.85;7.22;;;;;;;3.51;80.89;95502.66;4928058;29;20032;-81
2021/01/23 07:15:12;;;;;;;11.98;6.50;;;;;;;3.76;80.62;95503.94;4912875;29;20042;-81
2021/01/23 07:17:39;;;;;;;14.43;6.88;;;;;;;3.74;80.78;95500.84;4927338;29;20040;-80
2021/01/23 07:20:10;;;;;;;13.60;7.60;;;;;;;3.72;80.59;95503.66;4928081;29;20096;-81
2021/01/23 07:22:37;;;;;;;12.52;6.40;;;;;;;3.82;79.73;95499.59;4896642;29;20028;-81
2021/01/23 07:25:04;;;;;;;11.70;6.45;;;;;;;3.64;80.95;95501.50;4923755;29;20461;-81
2021/01/23 07:27:30;;;;;;;13.60;7.22;;;;;;;3.89;80.27;95502.75;4911496;29;20032;-81
2021/01/23 07:29:57;;;;;;;13.18;6.47;;;;;;;3.94;80.26;95498.47;4923256;29;20479;-81
2021/01/23 07:32:35;;;;;;;12.55;6.30;;;;;;;3.59;80.87;95498.09;4926772;29;20032;-80
2021/01/23 07:35:01;;;;;;;13.63;7.43;;;;;;;3.83;80.16;95499.38;4927278;29;20106;-81
2021/01/23 07:37:40;;;;;;;11.82;6.65;;;;;;;3.60;81.11;95497.06;4921555;29;20033;-80
2021/01/23 07:40:07;;;;;;;11.40;6.32;;;;;;;3.77;80.51;95499.56;4911856;29;20163;-81
2021/01/23 07:42:33;;;;;;;13.07;7.05;;;;;;;3.82;80.34;95497.84;4908651;29;20064;-81
2021/01/23 07:45:03;;;;;;;11.00;6.00;;;;;;;3.76;80.76;95493.63;4910575;29;20040;-81
2021/01/23 07:47:29;;;;;;;11.98;7.20;;;;;;;3.71;81.37;95496.16;4927519;29;20488;-80
2021/01/23 07:50:11;;;;;;;12.63;7.30;;;;;;;3.61;81.50;95501.97;4921006;29;20087;-81
2021/01/23 07:52:38;;;;;;;13.82;6.78;;;;;;;3.77;81.04;95495.22;4927078;29;20371;-80
2021/01/23 07:55:06;;;;;;;12.48;7.13;;;;;;;3.60;81.42;95490.13;4903014;29;20067;-81
2021/01/23 07:57:31;;;;;;;14.85;7.10;;;;;;;3.80;80.43;95484.41;4912459;29;20031;-81
2021/01/23 07:59:58;;;;;;;12.85;6.93;;;;;;;3.80;81.33;95481.81;4927224;29;20395;-81
2021/01/23 08:02:23;;;;;;;13.60;7.13;;;;;;;3.72;81.34;95484.84;4927554;29;20615;-81
2021/01/23 08:04:51;;;;;;;12.88;6.97;;;;;;;3.72;81.02;95477.91;4923442;29;20098;-81
2021/01/23 08:07:31;;;;;;;12.82;6.93;;;;;;;3.64;81.00;95473.19;4930109;29;20115;-81
2021/01/23 08:10:06;;;;;;;14.35;7.28;;;;;;;3.75;81.31;95477.44;4908989;29;20411;-81
2021/01/23 08:12:32;;;;;;;15.38;8.07;;;;;;;3.74;81.46;95472.50;4928129;29;20107;-81
2021/01/23 08:14:58;;;;;;;11.52;6.15;;;;;;;3.74;81.68;95475.09;4925845;29;20207;-81
2021/01/23 08:17:42;;;;;;;11.05;6.40;;;;;;;3.63;81.27;95478.56;4930411;29;20375;-81
2021/01/23 08:20:09;;;;;;;14.52;6.85;;;;;;;3.75;81.36;95476.63;4930363;29;20098;-81
2021/01/23 08:22:54;;;;;;;11.68;6.55;;;;;;;3.64;80.88;95482.72;4930224;29;20039;-80
2021/01/23 08:25:26;;;;;;;13.75;6.95;;;;;;;3.77;81.29;95479.75;4926261;29;20498;-81
2021/01/23 08:27:52;;;;;;;11.32;5.57;;;;;;;3.92;80.87;95473.97;4925696;29;20038;-81
2021/01/23 08:30:20;;;;;;;11.30;6.28;;;;;;;3.84;80.96;95480.34;4919083;29;20078;-81
2021/01/23 08:32:47;;;;;;;12.75;7.13;;;;;;;3.85;81.33;95478.53;4933772;29;20111;-81
2021/01/23 08:35:13;;;;;;;11.43;6.00;;;;;;;3.90;80.98;95479.34;4930801;29;20102;-81
2021/01/23 08:37:39;;;;;;;11.98;6.35;;;;;;;3.73;81.95;95478.66;4937740;29;20106;-81
2021/01/23 08:40:06;;;;;;;10.52;5.95;;;;;;;3.81;81.41;95477.47;4935220;29;20040;-81
2021/01/23 08:42:32;;;;;;;9.90;5.63;;;;;;;3.92;81.36;95476.53;4935803;29;20093;-80
2021/01/23 08:44:57;;;;;;;11.70;5.88;;;;;;;3.91;80.95;95475.75;4935381;29;20040;-80
2021/01/23 08:47:23;;;;;;;11.27;6.20;;;;;;;3.90;80.84;95471.63;4920209;29;20035;-81
2021/01/23 08:49:49;;;;;;;11.40;5.70;;;;;;;3.70;81.75;95463.72;4935539;29;20062;-81
2021/01/23 08:52:15;;;;;;;8.65;4.60;;;;;;;3.84;81.49;95466.66;4913619;29;20075;-81
2021/01/23 08:54:40;;;;;;;9.15;5.85;;;;;;;3.80;81.14;95468.97;4915192;29;20470;-81
2021/01/23 08:57:06;;;;;;;9.35;4.40;;;;;;;3.75;81.71;95471.47;4933032;29;20038;-81
2021/01/23 08:59:32;;;;;;;7.30;4.03;;;;;;;3.50;82.23;95470.22;4917232;29;20118;-81
2021/01/23 09:01:58;;;;;;;7.78;4.38;;;;;;;3.79;80.89;95472.56;4920002;29;20038;-81
2021/01/23 09:04:24;;;;;;;7.88;3.95;;;;;;;3.89;80.48;95462.38;4916801;29;20048;-81
2021/01/23 09:06:50;;;;;;;6.03;3.60;;;;;;;3.79;81.38;95470.00;4917877;29;20058;-81
2021/01/23 09:09:15;;;;;;;10.43;4.05;;;;;;;3.89;81.11;95471.88;4925918;29;20483;-81
2021/01/23 09:11:42;;;;;;;7.97;4.30;;;;;;;3.79;80.91;95462.28;4919726;29;20031;-80
2021/01/23 09:14:07;;;;;;;7.32;3.95;;;;;;;3.89;80.75;95467.50;4912596;29;20035;-81
2021/01/23 09:16:33;;;;;;;7.18;3.83;;;;;;;3.76;80.57;95465.31;4924876;29;20042;-81
2021/01/23 09:18:59;;;;;;;6.95;3.80;;;;;;;3.93;80.42;95465.22;4884781;29;20965;-82
2021/01/23 09:21:25;;;;;;;6.65;3.78;;;;;;;3.94;80.12;95462.41;4907798;29;20042;-81
2021/01/23 09:23:50;;;;;;;8.77;3.67;;;;;;;3.93;80.79;95468.56;4905340;29;20040;-81
2021/01/23 09:26:16;;;;;;;6.28;3.30;;;;;;;4.05;79.89;95473.56;4935384;29;20039;-81
2021/01/23 09:28:43;;;;;;;6.82;3.47;;;;;;;3.94;80.60;95464.19;4926094;29;20031;-81
2021/01/23 09:31:09;;;;;;;6.68;3.13;;;;;;;3.98;80.52;95461.94;4929044;29;20028;-81
2021/01/23 09:33:34;;;;;;;5.82;3.15;;;;;;;4.01;80.15;95459.63;4912187;29;20113;-81
2021/01/23 09:36:01;;;;;;;6.43;3.50;;;;;;;4.11;79.79;95469.22;4927734;29;20040;-81
2021/01/23 09:38:27;;;;;;;6.18;3.25;;;;;;;4.03;80.33;95462.75;4910810;29;20043;-81
2021/01/23 09:40:55;;;;;;;7.47;3.67;;;;;;;4.04;79.98;95458.34;4914126;29;20035;-81
2021/01/23 09:43:21;;;;;;;7.13;3.10;;;;;;;4.09;79.70;95453.25;4915425;29;20120;-81
2021/01/23 09:45:48;;;;;;;7.78;3.08;;;;;;;4.01;80.21;95453.69;4906407;29;20884;-81
2021/01/23 09:48:16;;;;;;;6.85;2.78;;;;;;;4.00;79.91;95450.34;4905406;29;20032;-81
2021/01/23 09:50:43;;;;;;;5.70;2.97;;;;;;;4.01;79.90;95448.53;4925625;29;20036;-81
2021/01/23 09:53:09;;;;;;;5.72;2.55;;;;;;;4.17;78.81;95446.88;4905517;29;20031;-80
2021/01/23 09:55:35;;;;;;;6.00;2.90;;;;;;;4.15;79.48;95451.47;4930551;29;20043;-81
2021/01/23 09:58:01;;;;;;;7.07;3.38;;;;;;;4.10;79.74;95447.84;4920099;29;20040;-81
2021/01/23 10:00:26;;;;;;;4.70;2.95;;;;;;;4.29;79.32;95439.75;4928795;29;20031;-81
2021/01/23 10:02:52;;;;;;;6.10;2.80;;;;;;;4.28;79.18;95445.94;4916023;29;20118;-81
2021/01/23 10:05:18;;;;;;;6.07;2.30;;;;;;;4.19;79.41;95437.88;4900363;29;20059;-81
2021/01/23 10:07:47;;;;;;;6.38;3.05;;;;;;;4.09;80.04;95438.56;4913490;29;20126;-81
2021/01/23 10:10:13;;;;;;;9.30;2.80;;;;;;;4.14;79.67;95437.84;4913327;29;20040;-81
2021/01/23 10:12:40;;;;;;;5.07;2.78;;;;;;;4.18;78.89;95428.63;4913095;29;20040;-81
2021/01/23 10:15:06;;;;;;;3.30;2.40;;;;;;;4.04;79.24;95433.38;4910161;29;20044;-81
2021/01/23 10:17:31;;;;;;;3.50;2.03;;;;;;;4.06;79.01;95436.50;4913382;29;20440;-81
2021/01/23 10:19:57;;;;;;;3.75;1.92;;;;;;;4.16;78.04;95427.28;4927614;29;20384;-81
2021/01/23 10:22:23;;;;;;;3.45;1.98;;;;;;;4.14;78.64;95419.81;4913056;29;20071;-81
2021/01/23 10:24:48;;;;;;;4.38;2.00;;;;;;;4.04;78.95;95423.06;4908913;29;20044;-81
2021/01/23 10:27:14;;;;;;;7.72;1.92;;;;;;;4.20;78.55;95421.41;4914407;29;20030;-81
2021/01/23 10:29:40;;;;;;;4.80;2.65;;;;;;;4.21;78.77;95422.94;4907807;29;20357;-81
2021/01/23 10:32:06;;;;;;;4.75;2.30;;;;;;;4.16;79.21;95417.00;4896946;29;20040;-80
2021/01/23 10:34:31;;;;;;;6.75;2.58;;;;;;;4.19;78.38;95419.09;4912400;29;20039;-81
2021/01/23 10:36:58;;;;;;;3.55;2.03;;;;;;;4.21;78.60;95407.50;4914883;29;20526;-81
2021/01/23 10:39:24;;;;;;;4.75;1.52;;;;;;;4.12;79.12;95403.84;4909309;29;20113;-81
2021/01/23 10:41:50;;;;;;;6.30;2.15;;;;;;;4.18;79.04;95400.28;4911631;29;20032;-81
2021/01/23 10:44:19;;;;;;;6.03;2.03;;;;;;;4.18;77.93;95387.41;4928324;29;20438;-81
2021/01/23 10:46:45;;;;;;;4.82;1.85;;;;;;;4.28;78.04;95387.47;4912905;29;20081;-81
2021/01/23 10:49:10;;;;;;;3.25;1.90;;;;;;;4.36;77.91;95382.88;4911773;29;20040;-81
2021/01/23 10:51:36;;;;;;;3.72;1.90;;;;;;;4.28;78.21;95366.88;4925914;29;20123;-81
2021/01/23 10:54:02;;;;;;;3.38;1.58;;;;;;;4.13;77.76;95366.75;4917738;29;20124;-81
2021/01/23 10:56:28;;;;;;;7.03;1.70;;;;;;;4.20;78.63;95358.78;4910223;29;20131;-81
2021/01/23 10:59:00;;;;;;;4.05;1.98;;;;;;;4.43;77.52;95363.56;4928121;29;20032;-80
2021/01/23 11:01:29;;;;;;;6.55;2.30;;;;;;;4.50;76.18;95360.78;4898717;29;20044;-81
2021/01/23 11:03:55;;;;;;;6.70;2.55;;;;;;;4.56;76.00;95362.38;4896375;29;20504;-81
2021/01/23 11:06:21;;;;;;;3.72;1.90;;;;;;;4.53;77.27;95351.78;4908097;29;20558;-81
2021/01/23 11:08:47;;;;;;;4.20;1.60;;;;;;;4.47;76.73;95353.53;4909064;29;20040;-81
2021/01/23 11:11:13;;;;;;;2.63;1.63;;;;;;;4.39;77.08;95348.88;4911452;29;20054;-81
2021/01/23 11:13:40;;;;;;;3.92;2.05;;;;;;;4.43;77.61;95345.53;4895493;29;20060;-81
2021/01/23 11:16:07;;;;;;;3.67;1.73;;;;;;;4.50;76.43;95342.75;4911200;29;20060;-81
2021/01/23 11:18:33;;;;;;;3.70;2.00;;;;;;;4.36;76.73;95341.66;4907056;29;20025;-81
2021/01/23 11:21:02;;;;;;;3.83;1.70;;;;;;;4.36;76.91;95341.66;4927106;29;20511;-81
2021/01/23 11:23:28;;;;;;;3.50;1.83;;;;;;;4.32;77.82;95331.84;4920014;29;20070;-81
2021/01/23 11:25:54;;;;;;;4.70;1.90;;;;;;;4.33;77.96;95332.59;4913146;29;20432;-81
2021/01/23 11:28:20;;;;;;;3.17;1.98;;;;;;;4.31;77.66;95338.00;4920510;29;20036;-81
2021/01/23 11:30:46;;;;;;;6.50;2.05;;;;;;;4.44;77.36;95333.44;4921799;29;20040;-81
2021/01/23 11:33:12;;;;;;;2.65;1.63;;;;;;;4.47;77.10;95327.78;4924008;29;20315;-81
2021/01/23 11:35:38;;;;;;;5.03;1.88;;;;;;;4.58;76.82;95329.38;4912060;29;20039;-81
2021/01/23 11:38:05;;;;;;;5.45;1.90;;;;;;;4.62;76.18;95330.41;4919855;29;20060;-81
2021/01/23 11:40:31;;;;;;;3.85;2.17;;;;;;;4.68;76.42;95318.34;4897399;29;20553;-81
2021/01/23 11:42:58;;;;;;;5.30;2.63;;;;;;;4.55;76.88;95321.38;4922037;29;20036;-80
2021/01/23 11:45:24;;;;;;;4.22;2.03;;;;;;;4.55;76.98;95322.16;4912580;29;20047;-80